Search for airport 
image banner adimage banner adimage banner ad
image banner ad

83L - Southeast Superior Court

Located in Norwalk, United States

ICAO - 83L, IATA -

Data provided by Airmate  

General information

Coordinates: N33°54'52" W118°4'18"
Elevation is 235 feet MSL.
Magnetic variation is 14° East
View others Airports in California

Operational data

Special qualification required
Current time UTC:
Current local time:
Weather at : KFUL - Fullerton Muni ( 10 km )
METAR: KFUL 231353Z 00000KT 10SM CLR 19/15 A2991 RMK AO2 SLP127 T01890150
View NOTAMs / SUP AIP / TFR affecting this airport [VIEW]
Communications frequencies: [VIEW]

Runways:

Airport contact information

Address: Norwalk United States

Satellite view of 83L